createdAt,value
2022-11-13T00:01:13.736Z,14.25
2022-11-13T00:06:16.230Z,14.57
2022-11-13T00:11:19.015Z,15.23
2022-11-13T00:16:21.430Z,15.57
2022-11-13T00:21:23.922Z,14.90
2022-11-13T00:26:31.165Z,15.40
2022-11-13T00:31:32.694Z,15.18
2022-11-13T00:36:34.249Z,15.02
2022-11-13T00:41:38.550Z,14.60
2022-11-13T00:46:40.011Z,15.93
2022-11-13T00:51:44.571Z,15.77
2022-11-13T00:56:48.950Z,15.68
2022-11-13T01:01:50.526Z,14.73
2022-11-13T01:06:52.174Z,14.75
2022-11-13T01:11:53.621Z,16.30
2022-11-13T01:16:54.994Z,16.13
2022-11-13T01:21:56.375Z,15.88
2022-11-13T01:26:57.801Z,15.63
2022-11-13T01:31:59.567Z,15.70
2022-11-13T01:37:01.018Z,15.77
2022-11-13T01:42:02.377Z,15.57
2022-11-13T01:47:03.850Z,16.08
2022-11-13T01:52:08.714Z,15.80
2022-11-13T01:57:10.706Z,14.70
2022-11-13T02:02:12.175Z,16.90
2022-11-13T02:07:15.209Z,14.65
2022-11-13T02:12:21.989Z,14.18
2022-11-13T02:17:46.386Z,14.15
2022-11-13T02:23:10.890Z,14.15
2022-11-13T02:28:12.275Z,14.55
2022-11-13T02:33:27.093Z,14.45
2022-11-13T02:38:28.789Z,15.25
2022-11-13T02:43:30.401Z,15.45
2022-11-13T02:48:31.774Z,15.90
2022-11-13T02:53:33.388Z,16.55
2022-11-13T02:58:34.861Z,16.17
2022-11-13T03:08:57.656Z,15.25
2022-11-13T03:13:59.028Z,15.45
2022-11-13T03:19:00.597Z,14.85
2022-11-13T03:24:02.457Z,14.73
2022-11-13T03:29:04.093Z,16.10
2022-11-13T03:34:05.494Z,15.65
2022-11-13T03:39:06.951Z,16.35
2022-11-13T03:44:08.578Z,16.70
2022-11-13T03:49:09.988Z,16.23
2022-11-13T03:54:11.369Z,16.60
2022-11-13T03:59:12.764Z,15.60
2022-11-13T04:04:14.529Z,15.85
2022-11-13T04:09:15.981Z,15.70
2022-11-13T04:14:17.529Z,15.80
2022-11-13T04:19:18.922Z,15.63
2022-11-13T04:24:20.540Z,14.88
2022-11-13T04:29:21.895Z,16.05
2022-11-13T04:34:23.302Z,16.05
2022-11-13T04:39:24.812Z,14.57
2022-11-13T04:44:26.173Z,15.57
2022-11-13T04:49:27.633Z,15.65
2022-11-13T04:54:29.211Z,15.73
2022-11-13T04:59:30.623Z,15.65
2022-11-13T05:04:32.063Z,15.90
2022-11-13T05:09:33.495Z,15.38
2022-11-13T05:14:36.679Z,17.13
2022-11-13T05:19:38.231Z,16.33
2022-11-13T05:24:39.610Z,16.30
2022-11-13T05:29:40.979Z,15.15
2022-11-13T05:34:42.378Z,15.50
2022-11-13T05:39:43.728Z,15.80
2022-11-13T05:44:45.127Z,15.07
2022-11-13T05:49:46.511Z,14.95
2022-11-13T05:54:48.338Z,16.38
2022-11-13T05:59:49.828Z,16.00
2022-11-13T06:04:52.899Z,16.10
2022-11-13T06:09:57.695Z,15.98
2022-11-13T06:14:59.230Z,16.35
2022-11-13T06:20:00.606Z,16.45
2022-11-13T06:25:02.161Z,15.98
2022-11-13T06:30:04.320Z,16.08
2022-11-13T06:35:05.802Z,16.45
2022-11-13T06:40:07.788Z,16.00
2022-11-13T06:45:09.379Z,15.65
2022-11-13T06:50:12.199Z,16.08
2022-11-13T06:55:13.633Z,15.32
2022-11-13T07:00:15.321Z,16.83
2022-11-13T07:05:17.057Z,15.85
2022-11-13T07:10:18.448Z,16.10
2022-11-13T07:15:21.609Z,14.95
2022-11-13T07:20:23.597Z,15.82
2022-11-13T07:25:25.244Z,14.95
2022-11-13T07:30:26.841Z,14.35
2022-11-13T07:35:28.280Z,14.20
2022-11-13T07:40:29.821Z,14.45
2022-11-13T07:45:31.420Z,14.73
2022-11-13T07:50:33.812Z,14.90
2022-11-13T07:55:35.508Z,13.70
2022-11-13T08:00:40.164Z,14.23
2022-11-13T08:05:42.374Z,13.70
2022-11-13T08:10:43.931Z,14.40
2022-11-13T08:15:45.471Z,13.65
2022-11-13T08:20:46.860Z,15.80
2022-11-13T08:25:50.466Z,14.48
2022-11-13T08:30:52.041Z,14.00
2022-11-13T08:35:54.710Z,13.45
2022-11-13T08:40:57.021Z,13.70
2022-11-13T08:45:58.530Z,13.55
2022-11-13T08:51:00.122Z,13.52
2022-11-13T08:56:02.347Z,13.60
2022-11-13T09:01:04.363Z,13.27
2022-11-13T09:06:09.264Z,14.13
2022-11-13T09:11:11.067Z,14.00
2022-11-13T09:16:12.531Z,14.48
2022-11-13T09:21:13.908Z,13.45
2022-11-13T09:26:15.339Z,13.75
2022-11-13T09:31:16.792Z,14.23
2022-11-13T09:36:19.671Z,13.98
2022-11-13T09:41:22.634Z,13.25
2022-11-13T09:46:42.806Z,14.40
2022-11-13T09:57:01.086Z,13.80
2022-11-13T10:02:08.734Z,13.52
2022-11-13T10:07:16.079Z,12.50
2022-11-13T10:12:17.785Z,13.60
2022-11-13T10:17:21.204Z,13.95
2022-11-13T10:22:33.814Z,13.48
2022-11-13T10:27:36.027Z,13.07
2022-11-13T10:32:39.974Z,13.20
2022-11-13T10:37:47.151Z,12.88
2022-11-13T10:42:48.768Z,12.82
2022-11-13T10:48:04.130Z,12.35
2022-11-13T10:53:14.919Z,12.95
2022-11-13T10:58:18.868Z,12.27
2022-11-13T11:03:21.893Z,12.57
2022-11-13T11:08:29.923Z,11.88
2022-11-13T11:13:31.514Z,11.57
2022-11-13T11:18:39.848Z,11.73
2022-11-13T11:23:56.174Z,11.95
2022-11-13T11:29:16.470Z,11.90
2022-11-13T11:34:20.665Z,11.32
2022-11-13T11:39:41.098Z,10.82
2022-11-13T11:44:57.650Z,10.85
2022-11-13T11:50:00.179Z,11.48
2022-11-13T11:55:29.804Z,11.13
2022-11-13T12:00:32.682Z,11.10
2022-11-13T12:05:45.232Z,11.45
2022-11-13T12:10:52.450Z,9.73
2022-11-13T12:16:05.939Z,10.65
2022-11-13T12:21:07.771Z,8.75
2022-11-13T12:26:22.621Z,9.15
2022-11-13T12:31:29.918Z,9.48
2022-11-13T12:36:31.964Z,9.05
2022-11-13T12:41:40.978Z,9.80
2022-11-13T12:46:42.587Z,9.27
2022-11-13T12:51:53.552Z,9.30
2022-11-13T12:57:05.350Z,8.82
2022-11-13T13:02:06.937Z,10.80
2022-11-13T13:07:18.478Z,10.73
2022-11-13T13:12:19.899Z,10.20
2022-11-13T13:17:22.990Z,9.73
2022-11-13T13:22:34.227Z,9.55
2022-11-13T13:27:38.019Z,9.10
2022-11-13T13:32:49.663Z,10.88
2022-11-13T13:38:01.541Z,9.82
2022-11-13T13:43:18.234Z,9.38
2022-11-13T13:48:21.619Z,10.18
2022-11-13T13:53:25.505Z,9.30
2022-11-13T13:58:29.146Z,8.75
2022-11-13T14:03:30.804Z,8.73
2022-11-13T14:08:33.689Z,8.85
2022-11-13T14:13:35.482Z,9.30
2022-11-13T14:18:36.866Z,8.75
2022-11-13T14:23:43.010Z,9.00
2022-11-13T14:28:44.373Z,8.15
2022-11-13T14:33:47.536Z,8.48
2022-11-13T14:38:52.190Z,8.45
2022-11-13T14:43:54.481Z,7.90
2022-11-13T14:48:56.788Z,8.63
2022-11-13T14:54:07.493Z,9.30
2022-11-13T14:59:15.524Z,9.02
2022-11-13T15:04:20.513Z,8.45
2022-11-13T15:09:24.424Z,8.55
2022-11-13T15:14:25.862Z,8.27
2022-11-13T15:19:30.845Z,9.32
2022-11-13T15:24:32.312Z,8.48
2022-11-13T15:29:33.757Z,8.07
2022-11-13T15:34:35.225Z,8.95
2022-11-13T15:39:36.635Z,8.32
2022-11-13T15:44:38.192Z,8.20
2022-11-13T15:49:46.868Z,8.20
2022-11-13T15:54:53.102Z,7.80
2022-11-13T15:59:55.076Z,8.45
2022-11-13T16:04:57.340Z,8.13
2022-11-13T16:09:58.894Z,8.07
2022-11-13T16:15:00.924Z,9.05
2022-11-13T16:20:03.220Z,8.55
2022-11-13T16:25:06.657Z,9.02
2022-11-13T16:30:15.373Z,8.10
2022-11-13T16:35:17.639Z,8.57
2022-11-13T16:40:20.660Z,8.80
2022-11-13T16:45:22.180Z,9.07
2022-11-13T16:50:25.009Z,8.73
2022-11-13T16:55:26.536Z,9.25
2022-11-13T17:00:27.961Z,9.02
2022-11-13T17:05:29.394Z,9.60
2022-11-13T17:10:32.666Z,8.02
2022-11-13T17:15:34.546Z,8.82
2022-11-13T17:20:36.783Z,8.73
2022-11-13T17:25:38.388Z,8.95
2022-11-13T17:30:39.763Z,8.98
2022-11-13T17:35:41.169Z,8.20
2022-11-13T17:40:44.241Z,8.52
2022-11-13T17:45:49.153Z,8.77
2022-11-13T17:50:59.591Z,8.63
2022-11-13T17:56:02.355Z,7.90
2022-11-13T18:01:05.359Z,8.80
2022-11-13T18:06:08.768Z,8.55
2022-11-13T18:11:15.406Z,7.85
2022-11-13T18:16:21.635Z,8.52
2022-11-13T18:21:24.732Z,8.43
2022-11-13T18:26:27.202Z,8.85
2022-11-13T18:31:29.564Z,9.00
2022-11-13T18:36:34.817Z,9.02
2022-11-13T18:41:40.760Z,8.70
2022-11-13T18:46:42.343Z,9.20
2022-11-13T18:51:43.893Z,10.32
2022-11-13T18:56:45.359Z,9.82
2022-11-13T19:01:46.876Z,9.05
2022-11-13T19:06:50.176Z,9.18
2022-11-13T19:11:53.699Z,9.60
2022-11-13T19:16:55.091Z,10.18
2022-11-13T19:21:56.524Z,10.48
2022-11-13T19:26:58.253Z,10.35
2022-11-13T19:31:59.732Z,9.15
2022-11-13T19:37:01.178Z,10.77
2022-11-13T19:42:02.692Z,10.40
2022-11-13T19:47:04.098Z,9.93
2022-11-13T19:52:06.554Z,10.50
2022-11-13T19:57:08.147Z,10.05
2022-11-13T20:02:10.298Z,10.43
2022-11-13T20:07:12.075Z,11.30
2022-11-13T20:12:13.545Z,10.60
2022-11-13T20:17:15.081Z,11.35
2022-11-13T20:22:16.706Z,10.90
2022-11-13T20:27:19.277Z,11.70
2022-11-13T20:32:23.757Z,11.90
2022-11-13T20:37:25.959Z,11.48
2022-11-13T20:42:28.071Z,11.57
2022-11-13T20:47:29.800Z,11.35
2022-11-13T20:52:31.446Z,11.52
2022-11-13T20:57:36.754Z,12.00
2022-11-13T21:02:41.317Z,10.80
2022-11-13T21:07:42.812Z,12.65
2022-11-13T21:12:44.461Z,12.43
2022-11-13T21:17:45.876Z,13.10
2022-11-13T21:22:47.317Z,13.13
2022-11-13T21:27:48.880Z,13.43
2022-11-13T21:32:50.265Z,13.23
2022-11-13T21:37:51.720Z,13.13
2022-11-13T21:42:53.986Z,14.30
2022-11-13T21:47:57.010Z,12.48
2022-11-13T21:52:58.473Z,14.00
2022-11-13T21:57:59.825Z,14.30
2022-11-13T22:03:01.209Z,13.60
2022-11-13T22:08:02.642Z,15.15
2022-11-13T22:13:04.166Z,14.10
2022-11-13T22:18:05.585Z,14.27
2022-11-13T22:23:06.963Z,13.90
2022-11-13T22:28:08.547Z,14.82
2022-11-13T22:33:10.018Z,15.15
2022-11-13T22:38:12.375Z,15.75
2022-11-13T22:43:13.906Z,15.48
2022-11-13T22:48:15.250Z,15.82
2022-11-13T22:53:16.580Z,16.33
2022-11-13T22:58:18.236Z,17.55
2022-11-13T23:03:19.675Z,17.92
2022-11-13T23:08:21.264Z,16.50
2022-11-13T23:13:23.009Z,18.20
2022-11-13T23:18:24.440Z,17.35
2022-11-13T23:23:25.858Z,19.20
2022-11-13T23:28:28.135Z,19.08
2022-11-13T23:33:30.019Z,18.65
2022-11-13T23:38:31.766Z,20.42
2022-11-13T23:44:07.234Z,21.30
2022-11-13T23:48:57.468Z,20.50
2022-11-13T23:53:58.916Z,21.80
2022-11-13T23:59:00.357Z,23.08
